Cuffley, United Kingdom
Current Conditions -  °F | °C
As of 3:50 AM on Saturday 20 Dec 2014 (Local Time) from EGGW Reporting Station
Broken Clouds Broken Clouds  
Wind Chill:   Ceiling: 3400
Heat Index:   Visibility: 6mi
Dew Point:   Wind: 14mph
Humidity: 81%   Direction: 240°WSW
Pressure: 30.18"   Gusts: NA
Location:  51.71°N, 0.11°W
Report Text: EGGW 200350Z AUTO 24012KT 9999 BKN034 BKN039 06/03 Q1022
Loading
Personal Weather Stations






























Interactive Weather Map New forecast layout! Learn more

10-Day Weather Forecast

Advertisements
Track Severe Weather on mobile